Time;durP1;ratioP1;P1;durP2;ratioP2;P2;SDS_P1;SDS_P2;PMS_P1;PMS_P2;Temp;Humidity;BMP_temperature;BMP_pressure;BME280_temperature;BME280_humidity;BME280_pressure;Samples;Min_cycle;Max_cycle;Signal;HPM_P1;HPM_P2
2023/03/04 00:00:18;;;;;;;;;;;;;;;6.03;100.00;99908.34;5023985;28;20419;-76
2023/03/04 00:02:43;;;;;;;;;;;;;;;6.05;100.00;99906.47;5025169;28;20086;-78
2023/03/04 00:05:09;;;;;;;;;;;;;;;6.15;100.00;99907.50;5022335;28;20366;-77
2023/03/04 00:07:34;;;;;;;;;;;;;;;6.26;100.00;99908.53;5026008;28;20018;-77
2023/03/04 00:09:59;;;;;;;;;;;;;;;6.32;100.00;99908.09;5026700;28;19925;-77
2023/03/04 00:12:25;;;;;;;;;;;;;;;6.38;100.00;99915.53;5009625;28;19921;-77
2023/03/04 00:14:51;;;;;;;;;;;;;;;6.44;100.00;99917.72;5023441;28;19925;-78
2023/03/04 00:17:16;;;;;;;;;;;;;;;6.48;100.00;99920.00;5024847;28;20028;-78
2023/03/04 00:19:42;;;;;;;;;;;;;;;6.47;100.00;99914.91;5008760;28;20151;-76
2023/03/04 00:22:07;;;;;;;;;;;;;;;6.52;100.00;99915.41;5007229;28;19967;-78
2023/03/04 00:24:33;;;;;;;;;;;;;;;6.40;100.00;99918.91;5025852;28;19921;-78
2023/03/04 00:26:59;;;;;;;;;;;;;;;6.42;100.00;99922.25;5009117;28;19928;-77
2023/03/04 00:29:24;;;;;;;;;;;;;;;6.44;100.00;99918.56;5020587;28;19925;-77
2023/03/04 00:31:50;;;;;;;;;;;;;;;6.42;100.00;99917.00;5026866;28;19964;-76
2023/03/04 00:34:15;;;;;;;;;;;;;;;6.46;100.00;99921.94;5022636;28;19936;-76
2023/03/04 00:36:43;;;;;;;;;;;;;;;6.47;100.00;99925.38;5023736;28;19996;-77
2023/03/04 00:39:09;;;;;;;;;;;;;;;6.41;100.00;99923.19;5007242;28;20294;-78
2023/03/04 00:41:34;;;;;;;;;;;;;;;6.37;100.00;99926.97;5007387;28;19921;-78
2023/03/04 00:44:01;;;;;;;;;;;;;;;6.43;100.00;99931.78;5025248;28;19921;-79
2023/03/04 00:46:26;;;;;;;;;;;;;;;6.35;100.00;99928.88;5026577;28;19921;-80
2023/03/04 00:48:51;;;;;;;;;;;;;;;6.41;100.00;99929.28;5024606;28;20405;-78
2023/03/04 00:51:17;;;;;;;;;;;;;;;6.45;100.00;99930.72;5005835;28;20366;-79
2023/03/04 00:53:42;;;;;;;;;;;;;;;6.44;100.00;99938.69;5022067;28;20286;-79
2023/03/04 00:56:07;;;;;;;;;;;;;;;6.32;100.00;99929.91;5025187;28;20016;-78
2023/03/04 00:58:33;;;;;;;;;;;;;;;6.29;100.00;99929.28;5024044;28;19928;-79
2023/03/04 01:00:58;;;;;;;;;;;;;;;6.12;100.00;99933.91;5008828;28;20002;-78
2023/03/04 01:03:25;;;;;;;;;;;;;;;6.01;100.00;99931.16;5005219;28;20008;-78
2023/03/04 01:05:51;;;;;;;;;;;;;;;6.10;100.00;99935.81;5009729;28;20258;-77
2023/03/04 01:08:16;;;;;;;;;;;;;;;6.14;100.00;99937.25;5020471;28;19929;-78
2023/03/04 01:10:41;;;;;;;;;;;;;;;6.07;100.00;99920.28;5006937;28;19921;-80
2023/03/04 01:13:07;;;;;;;;;;;;;;;6.15;100.00;99923.22;5027029;28;19944;-79
2023/03/04 01:15:32;;;;;;;;;;;;;;;6.18;100.00;99921.34;5025519;28;19971;-78
2023/03/04 01:17:58;;;;;;;;;;;;;;;6.18;100.00;99928.22;5006252;28;19921;-80
2023/03/04 01:20:23;;;;;;;;;;;;;;;6.11;100.00;99916.53;5009003;28;19929;-80
2023/03/04 01:22:48;;;;;;;;;;;;;;;6.15;100.00;99915.34;5006142;28;19928;-79
2023/03/04 01:25:14;;;;;;;;;;;;;;;6.09;100.00;99913.16;5023802;28;19928;-79
2023/03/04 01:27:39;;;;;;;;;;;;;;;6.03;100.00;99907.50;5005852;28;19928;-79
2023/03/04 01:30:05;;;;;;;;;;;;;;;6.07;100.00;99899.31;5006862;28;19922;-78
2023/03/04 01:32:30;;;;;;;;;;;;;;;5.97;100.00;99900.91;5023655;28;19925;-78
2023/03/04 01:34:55;;;;;;;;;;;;;;;6.02;100.00;99905.81;5023193;28;19922;-79
2023/03/04 01:37:21;;;;;;;;;;;;;;;5.90;100.00;99897.00;5023269;28;19975;-79
2023/03/04 01:39:47;;;;;;;;;;;;;;;5.82;100.00;99894.06;5021826;28;19921;-79
2023/03/04 01:42:19;;;;;;;;;;;;;;;5.87;100.00;99899.88;5024347;28;20279;-78
2023/03/04 01:44:46;;;;;;;;;;;;;;;6.01;100.00;99897.13;5022927;28;19929;-77
2023/03/04 01:47:11;;;;;;;;;;;;;;;6.03;100.00;99887.38;5020780;28;19955;-77
2023/03/04 01:49:36;;;;;;;;;;;;;;;5.97;100.00;99893.03;5006579;28;19921;-77
2023/03/04 01:52:02;;;;;;;;;;;;;;;5.78;100.00;99887.34;5023152;28;19921;-78
2023/03/04 01:54:28;;;;;;;;;;;;;;;5.77;100.00;99880.47;5025526;28;19921;-77
2023/03/04 01:56:54;;;;;;;;;;;;;;;5.85;100.00;99883.38;4989076;28;19972;-77
2023/03/04 01:59:21;;;;;;;;;;;;;;;5.87;100.00;99873.66;5010512;28;19924;-77
2023/03/04 02:01:54;;;;;;;;;;;;;;;5.87;100.00;99883.28;5004427;28;19925;-77
2023/03/04 02:04:21;;;;;;;;;;;;;;;5.97;100.00;99881.72;5021161;28;20377;-77
2023/03/04 02:06:47;;;;;;;;;;;;;;;5.95;100.00;99884.44;5006829;28;19925;-78
2023/03/04 02:09:13;;;;;;;;;;;;;;;5.96;100.00;99880.88;5025778;28;19921;-78
2023/03/04 02:11:39;;;;;;;;;;;;;;;5.90;100.00;99870.81;5005056;28;20336;-78
2023/03/04 02:14:05;;;;;;;;;;;;;;;5.81;100.00;99871.44;5022840;28;19921;-77
2023/03/04 02:16:30;;;;;;;;;;;;;;;5.74;100.00;99871.03;5023745;28;19933;-78
2023/03/04 02:18:56;;;;;;;;;;;;;;;5.78;100.00;99872.47;5022736;28;20670;-79
2023/03/04 02:21:28;;;;;;;;;;;;;;;5.85;100.00;99872.91;5025005;28;19921;-79
2023/03/04 02:24:00;;;;;;;;;;;;;;;5.86;100.00;99871.97;5020418;28;19921;-78
2023/03/04 02:26:27;;;;;;;;;;;;;;;5.80;100.00;99872.38;5004871;28;19928;-79
2023/03/04 02:28:55;;;;;;;;;;;;;;;5.72;100.00;99866.81;5004471;28;19926;-77
2023/03/04 02:31:26;;;;;;;;;;;;;;;5.69;100.00;99865.25;5006597;28;20035;-78
2023/03/04 02:33:53;;;;;;;;;;;;;;;5.76;100.00;99863.91;5017288;28;20266;-78
2023/03/04 02:36:18;;;;;;;;;;;;;;;5.85;100.00;99867.66;5005531;28;19959;-78
2023/03/04 02:38:44;;;;;;;;;;;;;;;5.92;100.00;99868.09;5021315;28;19999;-78
2023/03/04 02:41:14;;;;;;;;;;;;;;;5.93;100.00;99867.16;5006343;28;19975;-77
2023/03/04 02:43:39;;;;;;;;;;;;;;;5.90;100.00;99857.72;5003709;28;20340;-78
2023/03/04 02:46:05;;;;;;;;;;;;;;;5.84;100.00;99858.13;5040220;28;20010;-78
2023/03/04 02:48:30;;;;;;;;;;;;;;;5.77;100.00;99865.56;5025596;28;19958;-79
2023/03/04 02:50:55;;;;;;;;;;;;;;;5.78;100.00;99866.41;5029852;28;19925;-78
2023/03/04 02:53:21;;;;;;;;;;;;;;;5.77;100.00;99875.22;5005236;28;20024;-77
2023/03/04 02:55:47;;;;;;;;;;;;;;;5.82;100.00;99867.88;5009258;28;20399;-78
2023/03/04 02:58:13;;;;;;;;;;;;;;;5.86;100.00;99861.47;5006392;28;19965;-78
2023/03/04 03:00:39;;;;;;;;;;;;;;;5.80;100.00;99863.69;5029452;28;19921;-78
2023/03/04 03:03:05;;;;;;;;;;;;;;;5.78;100.00;99862.00;5012628;28;20356;-75
2023/03/04 03:05:35;;;;;;;;;;;;;;;5.76;100.00;99863.06;5024862;28;19933;-77
2023/03/04 03:08:00;;;;;;;;;;;;;;;5.72;100.00;99861.56;5040813;28;19931;-76
2023/03/04 03:10:26;;;;;;;;;;;;;;;5.74;100.00;99851.84;5009199;28;20007;-78
2023/03/04 03:12:51;;;;;;;;;;;;;;;5.71;100.00;99859.94;5026507;28;19972;-78
2023/03/04 03:15:18;;;;;;;;;;;;;;;5.61;100.00;99854.47;5011759;28;20264;-78
2023/03/04 03:17:44;;;;;;;;;;;;;;;5.59;100.00;99861.59;5023523;28;20013;-78
2023/03/04 03:20:10;;;;;;;;;;;;;;;5.59;100.00;99858.13;5026567;28;19975;-78
2023/03/04 03:22:36;;;;;;;;;;;;;;;5.58;100.00;99856.47;5007766;28;20036;-78
2023/03/04 03:25:02;;;;;;;;;;;;;;;5.57;100.00;99858.25;5026424;28;20007;-75
2023/03/04 03:27:27;;;;;;;;;;;;;;;5.51;100.00;99857.81;5025326;28;19963;-77
2023/03/04 03:29:53;;;;;;;;;;;;;;;5.58;100.00;99864.31;5039923;28;19949;-76
2023/03/04 03:32:18;;;;;;;;;;;;;;;5.58;100.00;99864.31;5023958;28;19971;-77
2023/03/04 03:34:44;;;;;;;;;;;;;;;5.54;100.00;99853.19;5028744;28;19929;-77
2023/03/04 03:37:09;;;;;;;;;;;;;;;5.49;100.00;99862.28;5025300;28;19921;-77
2023/03/04 03:39:34;;;;;;;;;;;;;;;5.47;100.00;99856.34;5024519;28;20015;-78
2023/03/04 03:42:00;;;;;;;;;;;;;;;5.47;100.00;99857.19;5025737;28;19932;-76
2023/03/04 03:44:25;;;;;;;;;;;;;;;5.41;100.00;99857.59;5028915;28;19921;-78
2023/03/04 03:46:50;;;;;;;;;;;;;;;5.47;100.00;99861.59;5024825;28;20026;-77
2023/03/04 03:49:16;;;;;;;;;;;;;;;5.38;100.00;99862.19;5028654;28;19979;-77
2023/03/04 03:51:41;;;;;;;;;;;;;;;5.25;100.00;99857.75;5009093;28;19932;-77
2023/03/04 03:54:07;;;;;;;;;;;;;;;5.21;100.00;99863.31;5027881;28;20043;-77
2023/03/04 03:56:32;;;;;;;;;;;;;;;5.15;100.00;99856.72;5027156;28;20011;-77
2023/03/04 03:58:58;;;;;;;;;;;;;;;5.16;100.00;99855.78;5024111;28;19921;-76
2023/03/04 04:01:24;;;;;;;;;;;;;;;5.15;100.00;99858.47;5024501;28;19975;-78
2023/03/04 04:03:49;;;;;;;;;;;;;;;5.14;100.00;99860.25;5028536;28;20281;-77
2023/03/04 04:06:14;;;;;;;;;;;;;;;5.17;100.00;99860.06;5022731;28;19933;-78
2023/03/04 04:08:40;;;;;;;;;;;;;;;5.27;100.00;99855.91;5026911;28;20815;-78
2023/03/04 04:11:05;;;;;;;;;;;;;;;5.37;100.00;99858.72;5024817;28;20001;-80
2023/03/04 04:13:30;;;;;;;;;;;;;;;5.23;100.00;99854.44;5027802;28;20015;-79
2023/03/04 04:15:56;;;;;;;;;;;;;;;5.11;100.00;99850.00;5024452;28;19921;-77
2023/03/04 04:18:22;;;;;;;;;;;;;;;4.90;100.00;99851.41;5028147;28;19925;-80
2023/03/04 04:20:48;;;;;;;;;;;;;;;4.95;100.00;99855.38;5024774;28;19928;-76
2023/03/04 04:23:13;;;;;;;;;;;;;;;5.00;100.00;99852.50;5026854;28;20007;-76
2023/03/04 04:25:38;;;;;;;;;;;;;;;5.09;100.00;99851.88;5023665;28;19922;-77
2023/03/04 04:28:04;;;;;;;;;;;;;;;5.06;100.00;99844.25;5027566;28;19932;-78
2023/03/04 04:30:29;;;;;;;;;;;;;;;5.00;100.00;99836.81;5024023;28;19921;-78
2023/03/04 04:32:54;;;;;;;;;;;;;;;5.00;100.00;99847.25;5027813;28;20397;-78
2023/03/04 04:35:20;;;;;;;;;;;;;;;4.99;100.00;99850.81;5019192;28;19925;-78
2023/03/04 04:37:45;;;;;;;;;;;;;;;4.92;100.00;99855.59;5028047;28;19925;-76
2023/03/04 04:40:11;;;;;;;;;;;;;;;4.71;100.00;99856.97;5025909;28;20007;-76
2023/03/04 04:42:36;;;;;;;;;;;;;;;4.67;100.00;99849.44;5024206;28;19971;-76
2023/03/04 04:45:02;;;;;;;;;;;;;;;4.61;100.00;99849.81;5025345;28;20377;-76
2023/03/04 04:47:27;;;;;;;;;;;;;;;4.47;100.00;99842.88;5026274;28;19928;-77
2023/03/04 04:49:53;;;;;;;;;;;;;;;4.50;100.00;99848.72;5024356;28;20012;-76
2023/03/04 04:52:18;;;;;;;;;;;;;;;4.44;100.00;99843.91;5026823;28;20046;-78
2023/03/04 04:54:43;;;;;;;;;;;;;;;4.50;100.00;99848.72;5009324;28;19940;-77
2023/03/04 04:57:09;;;;;;;;;;;;;;;4.52;100.00;99843.41;5029449;28;19925;-76
2023/03/04 04:59:34;;;;;;;;;;;;;;;4.38;100.00;99844.28;5031123;28;20249;-78
2023/03/04 05:01:59;;;;;;;;;;;;;;;4.45;100.00;99845.56;5027093;28;20132;-77
2023/03/04 05:04:25;;;;;;;;;;;;;;;4.46;100.00;99844.66;5037973;28;19916;-79
2023/03/04 05:06:50;;;;;;;;;;;;;;;4.52;100.00;99843.41;5047252;28;19936;-79
2023/03/04 05:09:15;;;;;;;;;;;;;;;4.51;100.00;99829.50;5036278;28;19921;-78
2023/03/04 05:11:41;;;;;;;;;;;;;;;4.56;100.00;99844.06;5025220;28;20764;-78
2023/03/04 05:14:06;;;;;;;;;;;;;;;4.57;100.00;99840.50;4989708;28;19922;-78
2023/03/04 05:16:32;;;;;;;;;;;;;;;4.45;100.00;99847.34;5024797;28;19932;-78
2023/03/04 05:18:57;;;;;;;;;;;;;;;4.54;100.00;99850.22;5005550;28;20000;-78
2023/03/04 05:21:22;;;;;;;;;;;;;;;4.49;100.00;99854.06;5009616;28;20002;-78
2023/03/04 05:23:48;;;;;;;;;;;;;;;4.43;100.00;99847.44;5024119;28;19943;-79
2023/03/04 05:26:14;;;;;;;;;;;;;;;4.37;100.00;99847.81;5009381;28;19928;-81
2023/03/04 05:28:40;;;;;;;;;;;;;;;4.24;100.00;99846.91;5025012;28;20011;-79
2023/03/04 05:31:06;;;;;;;;;;;;;;;4.21;100.00;99852.34;5025862;28;20015;-79
2023/03/04 05:33:31;;;;;;;;;;;;;;;4.28;100.00;99852.81;5005931;28;19921;-77
2023/03/04 05:35:57;;;;;;;;;;;;;;;4.34;100.00;99842.81;5023053;28;19922;-76
2023/03/04 05:38:22;;;;;;;;;;;;;;;4.38;100.00;99854.72;5026747;28;19921;-77
2023/03/04 05:40:48;;;;;;;;;;;;;;;4.41;100.00;99854.56;5008854;28;19929;-77
2023/03/04 05:43:13;;;;;;;;;;;;;;;4.48;100.00;99855.81;5022909;28;19928;-76
2023/03/04 05:45:39;;;;;;;;;;;;;;;4.33;100.00;99848.13;5025371;28;20295;-75
2023/03/04 05:48:05;;;;;;;;;;;;;;;4.35;100.00;99844.50;5021493;28;20307;-76
2023/03/04 05:50:30;;;;;;;;;;;;;;;4.30;100.00;99851.75;5024227;28;19921;-76
2023/03/04 05:52:56;;;;;;;;;;;;;;;4.24;100.00;99849.53;5026185;28;19921;-78
2023/03/04 05:55:21;;;;;;;;;;;;;;;4.23;100.00;99847.88;5021804;28;19921;-78
2023/03/04 05:57:47;;;;;;;;;;;;;;;4.27;100.00;99851.97;5008254;28;19925;-78
2023/03/04 06:00:13;;;;;;;;;;;;;;;4.32;100.00;99849.06;5025797;28;19927;-77
2023/03/04 06:02:39;;;;;;;;;;;;;;;4.35;100.00;99852.34;5021547;28;19929;-77
2023/03/04 06:05:04;;;;;;;;;;;;;;;4.37;100.00;99855.66;5019744;28;19921;-76
2023/03/04 06:07:30;;;;;;;;;;;;;;;4.34;100.00;99863.72;5024787;28;19929;-78
2023/03/04 06:09:55;;;;;;;;;;;;;;;4.29;100.00;99865.78;5022019;28;20397;-77
2023/03/04 06:12:21;;;;;;;;;;;;;;;4.23;100.00;99860.94;5019098;28;19932;-76
2023/03/04 06:14:46;;;;;;;;;;;;;;;3.99;100.00;99859.84;5023970;28;19963;-77
2023/03/04 06:17:11;;;;;;;;;;;;;;;3.97;100.00;99864.28;5023593;28;19929;-78
2023/03/04 06:19:38;;;;;;;;;;;;;;;3.94;100.00;99864.50;5022629;28;19972;-80
2023/03/04 06:22:04;;;;;;;;;;;;;;;3.95;100.00;99866.16;5024854;28;19928;-80
2023/03/04 06:24:29;;;;;;;;;;;;;;;3.89;100.00;99866.56;5003790;28;20293;-78
2023/03/04 06:26:55;;;;;;;;;;;;;;;3.84;100.00;99868.56;5003559;28;20057;-78
2023/03/04 06:29:20;;;;;;;;;;;;;;;3.85;100.00;99875.47;5007373;28;19931;-79
2023/03/04 06:31:45;;;;;;;;;;;;;;;3.88;100.00;99870.09;5024366;28;19929;-79
2023/03/04 06:34:11;;;;;;;;;;;;;;;3.91;100.00;99870.72;5006107;28;20410;-79
2023/03/04 06:36:36;;;;;;;;;;;;;;;3.99;100.00;99875.50;5022648;28;20049;-79
2023/03/04 06:39:03;;;;;;;;;;;;;;;4.01;100.00;99871.00;5021132;28;20385;-78
2023/03/04 06:41:28;;;;;;;;;;;;;;;3.99;100.00;99878.94;5019447;28;19937;-79
2023/03/04 06:43:53;;;;;;;;;;;;;;;3.85;100.00;99881.53;5020698;28;20048;-77
2023/03/04 06:46:19;;;;;;;;;;;;;;;3.64;100.00;99891.50;5022281;28;20376;-78
2023/03/04 06:48:44;;;;;;;;;;;;;;;3.74;100.00;99888.34;4986388;28;19932;-79
2023/03/04 06:51:12;;;;;;;;;;;;;;;3.83;100.00;99887.81;5023449;28;20085;-79
2023/03/04 06:53:38;;;;;;;;;;;;;;;3.99;100.00;99883.34;5022242;28;19922;-79
2023/03/04 06:56:04;;;;;;;;;;;;;;;3.90;100.00;99892.53;5024031;28;19928;-79
2023/03/04 06:58:29;;;;;;;;;;;;;;;4.05;100.00;99893.41;5021744;28;20015;-79
2023/03/04 07:00:54;;;;;;;;;;;;;;;4.02;100.00;99891.81;5024514;28;20028;-78
2023/03/04 07:03:20;;;;;;;;;;;;;;;4.02;100.00;99888.34;5003186;28;20248;-78
2023/03/04 07:05:45;;;;;;;;;;;;;;;4.07;100.00;99896.75;5021984;28;20412;-79
2023/03/04 07:08:10;;;;;;;;;;;;;;;4.17;100.00;99897.88;5019362;28;19968;-78
2023/03/04 07:10:36;;;;;;;;;;;;;;;4.26;100.00;99893.84;5023064;28;19921;-79
2023/03/04 07:13:01;;;;;;;;;;;;;;;4.33;100.00;99895.16;5003742;28;19970;-79
2023/03/04 07:15:27;;;;;;;;;;;;;;;4.36;100.00;99898.41;5024576;28;20385;-79
2023/03/04 07:17:52;;;;;;;;;;;;;;;4.41;100.00;99901.59;5021003;28;19921;-79
2023/03/04 07:20:18;;;;;;;;;;;;;;;4.39;100.00;99898.22;5022893;28;20301;-78
2023/03/04 07:22:43;;;;;;;;;;;;;;;4.46;100.00;99903.91;5020348;28;20330;-78
2023/03/04 07:25:08;;;;;;;;;;;;;;;4.52;100.00;99908.75;5023351;28;19929;-79
2023/03/04 07:27:34;;;;;;;;;;;;;;;4.39;100.00;99906.06;5017057;28;19921;-79
2023/03/04 07:29:59;;;;;;;;;;;;;;;4.45;100.00;99907.44;5008244;28;20385;-80
2023/03/04 07:32:25;;;;;;;;;;;;;;;4.59;100.00;99903.97;5024958;28;19921;-79
2023/03/04 07:34:52;;;;;;;;;;;;;;;4.66;100.00;99907.88;5023146;28;20679;-79
2023/03/04 07:37:17;;;;;;;;;;;;;;;4.86;100.00;99897.84;5025443;28;20381;-79
2023/03/04 07:39:44;;;;;;;;;;;;;;;5.04;100.00;99898.44;5025822;28;20004;-80
2023/03/04 07:42:09;;;;;;;;;;;;;;;5.17;100.00;99904.53;5027036;28;20024;-79
2023/03/04 07:44:38;;;;;;;;;;;;;;;5.33;100.00;99897.34;5010533;28;19983;-79
2023/03/04 07:47:04;;;;;;;;;;;;;;;5.47;100.00;99900.84;5027809;28;19937;-79
2023/03/04 07:49:30;;;;;;;;;;;;;;;5.54;100.00;99896.84;5026093;28;19925;-79
2023/03/04 07:51:55;;;;;;;;;;;;;;;5.62;100.00;99897.19;5028080;28;19917;-79
2023/03/04 07:54:21;;;;;;;;;;;;;;;5.78;100.00;99901.28;5027976;28;20289;-79
2023/03/04 07:56:46;;;;;;;27.90;20.40;;;;;;;5.94;100.00;99900.28;5023668;28;19948;-77
2023/03/04 07:59:12;;;;;;;26.33;20.83;;;;;;;6.10;100.00;99901.75;5008741;28;20402;-79
2023/03/04 08:01:37;;;;;;;;;;;;;;;6.20;100.00;99903.72;5022788;28;20406;-79
2023/03/04 08:04:05;;;;;;;30.00;22.03;;;;;;;6.34;100.00;99901.81;5025939;28;20423;-77
2023/03/04 08:06:30;;;;;;;;;;;;;;;6.48;100.00;99908.72;5023543;28;20424;-77
2023/03/04 08:08:57;;;;;;;;;;;;;;;6.64;100.00;99911.91;5027580;28;19917;-80
2023/03/04 08:11:23;;;;;;;;;;;;;;;6.78;100.00;99911.75;5024691;28;19956;-79
2023/03/04 08:13:48;;;;;;;;;;;;;;;6.90;100.00;99910.03;5011168;28;19949;-80
2023/03/04 08:16:15;;;;;;;;;;;;;;;7.02;100.00;99908.31;5023827;28;20609;-79
2023/03/04 08:18:44;;;;;;;;;;;;;;;7.14;100.00;99912.66;5027414;28;20012;-79
2023/03/04 08:21:10;;;;;;;;;;;;;;;7.23;100.00;99902.34;5023942;28;20433;-79
2023/03/04 08:23:36;;;;;;;;;;;;;;;7.36;100.00;99897.84;5025845;28;19916;-79
2023/03/04 08:26:05;;;;;;;;;;;;;;;7.48;100.00;99905.78;5024466;28;20285;-80
2023/03/04 08:28:30;;;;;;;;;;;;;;;7.56;100.00;99904.22;5024039;28;20451;-79
2023/03/04 08:30:56;;;;;;;;;;;;;;;7.62;100.00;99898.53;5020083;28;19965;-80
2023/03/04 08:33:21;;;;;;;;;;;;;;;7.66;100.00;99905.22;5026730;28;20222;-80
2023/03/04 08:35:46;;;;;;;;;;;;;;;7.70;100.00;99896.16;5023213;28;20381;-79
2023/03/04 08:38:12;;;;;;;;;;;;;;;7.86;100.00;99894.97;5028487;28;20051;-79
2023/03/04 08:40:37;;;;;;;;;;;;;;;7.79;100.00;99895.44;5023920;28;19917;-80
2023/03/04 08:43:02;;;;;;;;;;;;;;;7.85;100.00;99891.53;5024361;28;20012;-78
2023/03/04 08:45:28;;;;;;;;;;;;;;;7.92;100.00;99889.25;5023323;28;20389;-78
2023/03/04 08:47:53;;;;;;;;;;;;;;;7.91;100.00;99892.84;5026754;28;19916;-78
2023/03/04 08:50:18;;;;;;;;;;;;;;;7.97;100.00;99887.13;5020081;28;19924;-77
2023/03/04 08:52:44;;;;;;;;;;;;;;;8.02;100.00;99887.59;5023258;28;20753;-77
2023/03/04 08:55:10;;;;;;;;;;;;;;;8.10;100.00;99877.34;5024041;28;19917;-77
2023/03/04 08:57:35;;;;;;;;;;;;;;;8.21;100.00;99879.97;5025080;28;20237;-78
2023/03/04 09:00:00;;;;;;;;;;;;;;;8.22;100.00;99871.13;5023317;28;19921;-77
2023/03/04 09:02:26;;;;;;;;;;;;;;;8.22;100.00;99866.69;5026829;28;19917;-78
2023/03/04 09:04:51;;;;;;;;;;;;;;;8.29;100.00;99864.44;5022578;28;20305;-77
2023/03/04 09:07:17;;;;;;;;;;;;;;;8.31;100.00;99870.41;5023326;28;20289;-78
2023/03/04 09:09:42;;;;;;;;;;;;;;;8.38;100.00;99866.34;5023451;28;19921;-76
2023/03/04 09:12:07;;;;;;;;;;;;;;;8.44;100.00;99865.88;5026153;28;20313;-78
2023/03/04 09:14:34;;;;;;;;;;;;;;;8.43;100.00;99858.94;5022393;28;19917;-77
2023/03/04 09:17:00;;;;;;;;;;;;;;;8.57;100.00;99860.47;5026205;28;19924;-78
2023/03/04 09:19:26;;;;;;;;;;;;;;;8.66;100.00;99853.66;5022969;28;20373;-78
2023/03/04 09:21:54;;;;;;;;;;;;;;;8.73;100.00;99854.81;5025746;28;20075;-79
2023/03/04 09:24:19;;;;;;;;;;;;;;;8.79;100.00;99855.16;5022499;28;19917;-77
2023/03/04 09:26:44;;;;;;;;;;;;;;;8.90;100.00;99851.63;5022130;28;20043;-79
2023/03/04 09:29:10;;;;;;;;;;;;;;;8.86;100.00;99855.50;5005849;28;20289;-79
2023/03/04 09:31:35;;;;;;;;;;;;;;;8.95;100.00;99852.13;5025043;28;20656;-78
2023/03/04 09:34:01;;;;;;;;;;;;;;;9.06;100.00;99849.44;5023006;28;19921;-78
2023/03/04 09:36:26;;;;;;;;;;;;;;;9.17;100.00;99849.41;5025879;28;19925;-78
2023/03/04 09:38:51;;;;;;;;;;;;;;;9.24;100.00;99850.56;5022140;28;19917;-78
2023/03/04 09:41:20;;;;;;;;;;;;;;;9.32;100.00;99848.13;5025303;28;20007;-78
2023/03/04 09:43:46;;;;;;;;;;;;;;;9.34;100.00;99851.47;5021854;28;19921;-79
2023/03/04 09:46:14;;;;;;;;;;;;;;;9.42;100.00;99849.00;5026060;28;19921;-79
2023/03/04 09:48:47;;;;;;;;;;;;;;;9.54;100.00;99846.34;5022025;28;19921;-79
2023/03/04 09:51:13;;;;;;;;;;;;;;;9.64;100.00;99847.22;5022869;28;19920;-78
2023/03/04 09:53:56;;;;;;;;;;;;;;;9.69;100.00;99845.03;5023724;28;19971;-79
2023/03/04 09:56:22;;;;;;;;;;;;;;;9.76;100.00;99848.81;5022396;28;20328;-78
2023/03/04 09:58:47;;;;;;;;;;;;;;;9.82;100.00;99840.41;5007280;28;19955;-79
2023/03/04 10:01:21;;;;;;;;;;;;;;;9.86;100.00;99837.34;5023240;28;19917;-78
2023/03/04 10:04:13;;;;;;;;;;;;;;;9.94;100.00;99836.72;5024720;28;19917;-79
2023/03/04 10:06:39;;;;;;;;;;;;;;;9.97;100.00;99831.16;4999898;28;19924;-79
2023/03/04 10:09:13;;;;;;;;;;;;;;;10.08;100.00;99832.88;5024596;28;20281;-79
2023/03/04 10:11:38;;;;;;;;;;;;;;;10.12;100.00;99832.50;5022194;28;19917;-78
2023/03/04 10:14:04;;;;;;;;;;;;;;;10.21;100.00;99829.06;5024486;28;19943;-78
2023/03/04 10:16:36;;;;;;;;;;;;;;;10.28;100.00;99829.38;5004382;28;20381;-81
2023/03/04 10:19:15;;;;;;;;;;;;;;;10.36;100.00;99824.28;5038956;28;19917;-77
2023/03/04 10:21:43;;;;;;;;;;;;;;;10.46;100.00;99816.38;5023824;28;19943;-79
2023/03/04 10:24:21;;;;;;;;;;;;;;;10.54;100.00;99819.19;5024142;28;20103;-78
2023/03/04 10:26:48;;;;;;;;;;;;;;;10.66;100.00;99821.53;5021502;28;20262;-79
2023/03/04 10:29:18;;;;;;;;;;;;;;;10.73;100.00;99816.53;5023441;28;19917;-78
2023/03/04 10:31:43;;;;;;;;;;;;;;;10.80;100.00;99817.66;5023254;28;20062;-78
2023/03/04 10:34:12;;;;;;;;;;;;;;;10.85;100.00;99817.25;5004848;28;19929;-78
2023/03/04 10:36:43;;;;;;;;;;;;;;;10.88;100.00;99814.34;5023969;28;19917;-78
2023/03/04 10:39:15;;;;;;;;;;;;;;;10.92;100.00;99811.28;5023507;28;19917;-78
2023/03/04 10:41:42;;;;;;;;;;;;;;;10.95;100.00;99808.38;5023469;28;19921;-78
2023/03/04 10:44:07;;;;;;;;;;;;;;;11.00;100.00;99807.97;5021261;28;19917;-79
2023/03/04 10:46:37;;;;;;;;;;;;;;;11.04;100.00;99804.88;5021922;28;20435;-78
2023/03/04 10:49:02;;;;;;;;;;;;;;;11.09;100.00;99800.03;5025449;28;19971;-79
2023/03/04 10:51:28;;;;;;;;;;;;;;;11.15;100.00;99789.88;5021565;28;19949;-79
2023/03/04 10:53:58;;;;;;;;;;;;;;;11.23;100.00;99790.84;5023070;28;19924;-78
2023/03/04 10:56:33;;;;;;;;;;;;;;;11.27;100.00;99786.09;5020032;28;19917;-78
2023/03/04 10:59:17;;;;;;;;;;;;;;;11.31;100.00;99774.28;5023226;28;20075;-78
2023/03/04 11:01:42;;;;;;;;;;;;;;;11.35;100.00;99781.78;5019461;28;19975;-78
2023/03/04 11:04:19;;;;;;;;;;;;;;;11.46;100.00;99773.69;5022108;28;19917;-78
2023/03/04 11:06:45;;;;;;;;;;;;;;;11.59;100.00;99773.38;5010006;28;20820;-78
2023/03/04 11:09:21;;;;;;;;;;;;;;;11.70;100.00;99767.91;5028040;28;19921;-79
2023/03/04 11:11:48;;;;;;;;;;;;;;;11.82;100.00;99769.44;5028179;28;20008;-79
2023/03/04 11:14:21;;;;;;;;;;;;;;;11.88;100.00;99770.66;5027121;28;19917;-79
2023/03/04 11:17:06;;;;;;;;;;;;;;;11.84;100.00;99761.34;5027970;28;19917;-79
2023/03/04 11:19:38;;;;;;;;;;;;;;;11.85;98.25;99758.56;5012605;28;19961;-78
2023/03/04 11:22:03;;;;;;;;;;;;;;;11.88;97.98;99752.97;5007021;28;19921;-78
2023/03/04 11:24:29;;;;;;;;;;;;;;;11.96;98.85;99748.78;5025770;28;20002;-77
2023/03/04 11:27:07;;;;;;;;;;;;;;;12.04;98.49;99743.56;5025627;28;19917;-79
2023/03/04 11:29:41;;;;;;;;;;;;;;;12.15;95.41;99740.72;5026766;28;19917;-79
2023/03/04 11:32:21;;;;;;;;;;;;;;;12.24;93.18;99734.56;5026288;28;19928;-78
2023/03/04 11:35:07;;;;;;;;;;;;;;;12.30;93.95;99726.84;5012853;28;19978;-78
2023/03/04 11:37:49;;;;;;;;;;;;;;;12.40;91.72;99732.06;5025842;28;19924;-78
2023/03/04 11:40:32;;;;;;;;;;;;;;;12.47;91.47;99727.84;5026926;28;19923;-78
2023/03/04 11:42:58;;;;;;;;;;;;;;;12.57;92.45;99718.00;5027777;28;19917;-78
2023/03/04 11:45:29;;;;;;;;;;;;;;;12.67;92.57;99708.16;5024925;28;19917;-78
2023/03/04 11:48:01;;;;;;;;;;;;;;;12.72;90.35;99715.69;5027976;28;19917;-78
2023/03/04 11:50:46;;;;;;;;;;;;;;;12.87;88.32;99708.00;5024371;28;19924;-77
2023/03/04 11:53:30;;;;;;;;;;;;;;;13.03;87.36;99702.81;5025552;28;19928;-78
2023/03/04 11:56:09;;;;;;;;;;;;;;;13.06;86.09;99691.94;5027462;28;19917;-79
2023/03/04 11:58:37;;;;;;;;;;;;;;;13.13;85.92;99688.50;5025092;28;19917;-78
2023/03/04 12:01:14;;;;;;;;;;;;;;;13.21;83.67;99690.41;5027545;28;19986;-78
2023/03/04 12:03:52;;;;;;;;;;;;;;;13.28;83.00;99680.84;5025853;28;20013;-80
2023/03/04 12:06:36;;;;;;;;;;;;;;;13.35;81.72;99676.56;5025842;28;20007;-79
2023/03/04 12:09:13;;;;;;;;;;;;;;;13.46;80.96;99673.66;5028141;28;20738;-79
2023/03/04 12:11:57;;;;;;;;;;;;;;;13.62;81.18;99661.44;5007905;28;19917;-79
2023/03/04 12:14:29;;;;;;;;;;;;;;;13.75;81.17;99656.53;5025130;28;20366;-80
2023/03/04 12:17:00;;;;;;;;;;;;;;;13.86;81.09;99656.22;5025188;28;19924;-80
2023/03/04 12:19:36;;;;;;;;;;;;;;;13.99;79.02;99653.94;5020865;28;19948;-78
2023/03/04 12:22:16;;;;;;;;;;;;;;;14.04;76.42;99646.34;5025959;28;19921;-78
2023/03/04 12:24:42;;;;;;;;;;;;;;;14.09;75.08;99637.88;5025915;28;19924;-79
2023/03/04 12:27:23;;;;;;;;;;;;;;;14.19;73.84;99628.81;5024083;28;19917;-78
2023/03/04 12:29:51;;;;;;;;;;;;;;;14.34;73.29;99624.50;5013538;28;19976;-78
2023/03/04 12:32:41;;;;;;;;;;;;;;;14.48;72.26;99616.91;5025525;28;19917;-79
2023/03/04 12:35:22;;;;;;;;;;;;;;;14.63;72.25;99615.22;5024805;28;20423;-79
2023/03/04 12:37:57;;;;;;;;;;;;;;;14.72;72.46;99600.94;5027608;28;20404;-79
2023/03/04 12:40:37;;;;;;;;;;;;;;;14.91;72.32;99597.91;5027112;28;20051;-79
2023/03/04 12:43:25;;;;;;;;;;;;;;;15.04;72.28;99590.25;5026777;28;19917;-78
2023/03/04 12:46:10;;;;;;;;;;;;;;;15.18;70.37;99587.88;5027677;28;19928;-80